Time;durP1;ratioP1;P1;durP2;ratioP2;P2;SDS_P1;SDS_P2;PMS_P1;PMS_P2;Temp;Humidity;BMP_temperature;BMP_pressure;BME280_temperature;BME280_humidity;BME280_pressure;Samples;Min_cycle;Max_cycle;Signal;HPM_P1;HPM_P2
2021/05/02 00:00:23;;;;;;;11.02;8.40;;;;;;;7.10;58.86;99483.78;5090713;28;20036;-73
2021/05/02 00:02:49;;;;;;;12.68;8.02;;;;;;;7.05;58.72;99488.38;5090035;28;20036;-73
2021/05/02 00:05:17;;;;;;;15.02;9.40;;;;;;;7.00;59.05;99485.09;5089696;28;20128;-73
2021/05/02 00:07:43;;;;;;;13.32;9.15;;;;;;;6.95;59.54;99484.41;5085816;28;20028;-72
2021/05/02 00:10:10;;;;;;;12.38;10.27;;;;;;;6.87;59.60;99489.94;5090084;28;20036;-72
2021/05/02 00:12:37;;;;;;;13.13;8.68;;;;;;;6.88;59.51;99488.19;5088640;28;20035;-72
2021/05/02 00:15:06;;;;;;;9.55;7.72;;;;;;;6.87;59.38;99486.50;5072063;28;20036;-73
2021/05/02 00:17:35;;;;;;;10.50;8.77;;;;;;;6.86;59.31;99488.22;5090191;28;20036;-73
2021/05/02 00:20:01;;;;;;;11.35;8.75;;;;;;;6.84;59.48;99484.84;5089574;28;20538;-73
2021/05/02 00:22:26;;;;;;;12.43;9.35;;;;;;;6.83;59.46;99482.25;5071321;28;20036;-73
2021/05/02 00:24:52;;;;;;;14.45;9.25;;;;;;;6.79;59.59;99483.28;5090190;28;20036;-73
2021/05/02 00:27:17;;;;;;;13.77;9.07;;;;;;;6.75;59.73;99487.81;5089890;28;20112;-73
2021/05/02 00:29:44;;;;;;;12.00;8.65;;;;;;;6.71;59.67;99490.59;5089956;28;20028;-73
2021/05/02 00:32:10;;;;;;;15.48;10.70;;;;;;;6.56;59.90;99486.78;5090492;28;20032;-73
2021/05/02 00:34:37;;;;;;;14.10;9.23;;;;;;;6.47;61.03;99487.13;5089841;28;20040;-72
2021/05/02 00:37:04;;;;;;;13.75;11.25;;;;;;;6.41;60.78;99488.22;5089534;28;20500;-71
2021/05/02 00:39:30;;;;;;;17.15;10.77;;;;;;;6.37;61.08;99486.63;5089908;28;20032;-72
2021/05/02 00:41:58;;;;;;;12.50;8.82;;;;;;;6.37;61.08;99495.31;5090354;28;20035;-72
2021/05/02 00:44:48;;;;;;;12.50;9.40;;;;;;;6.36;61.21;99493.63;5093901;28;20032;-72
2021/05/02 00:47:23;;;;;;;14.13;9.98;;;;;;;6.39;61.01;99490.88;5075505;28;20032;-71
2021/05/02 00:50:05;;;;;;;13.20;9.48;;;;;;;6.38;61.16;99499.66;5094858;28;20403;-72
2021/05/02 00:52:46;;;;;;;12.30;9.98;;;;;;;6.39;61.05;99497.91;5091291;28;20048;-72
2021/05/02 00:55:15;;;;;;;12.90;9.45;;;;;;;6.38;61.40;99497.03;5090051;28;20074;-73
2021/05/02 00:57:53;;;;;;;11.27;9.63;;;;;;;6.42;61.40;99501.25;5072383;28;20039;-73
2021/05/02 01:00:19;;;;;;;13.77;9.32;;;;;;;6.46;61.29;99496.75;5090133;28;20103;-73
2021/05/02 01:02:47;;;;;;;15.93;9.32;;;;;;;6.47;61.25;99503.69;5069405;28;20032;-72
2021/05/02 01:05:13;;;;;;;12.43;9.88;;;;;;;6.52;61.42;99493.94;5088877;28;20032;-71
2021/05/02 01:07:41;;;;;;;14.32;8.98;;;;;;;6.52;61.56;99504.41;5089610;28;20077;-71
2021/05/02 01:10:11;;;;;;;14.77;10.23;;;;;;;6.53;61.70;99508.72;5051594;28;20035;-71
2021/05/02 01:12:48;;;;;;;11.88;9.77;;;;;;;6.55;62.03;99511.28;5089507;28;20028;-71
2021/05/02 01:15:22;;;;;;;13.35;10.90;;;;;;;6.54;61.84;99510.41;5088350;28;20036;-71
2021/05/02 01:17:59;;;;;;;15.05;11.98;;;;;;;6.48;62.39;99505.41;5089760;28;20402;-71
2021/05/02 01:20:27;;;;;;;15.90;10.80;;;;;;;6.49;63.01;99504.50;5089442;28;20032;-71
2021/05/02 01:22:57;;;;;;;14.45;10.95;;;;;;;6.46;62.61;99515.09;5089299;28;20039;-72
2021/05/02 01:25:23;;;;;;;17.85;9.93;;;;;;;6.44;62.90;99509.91;5088957;28;20048;-71
2021/05/02 01:27:53;;;;;;;14.02;11.45;;;;;;;6.40;62.58;99517.94;5089998;28;20444;-71
2021/05/02 01:30:20;;;;;;;17.45;11.95;;;;;;;6.32;62.75;99517.34;5089513;28;20028;-71
2021/05/02 01:32:46;;;;;;;18.58;11.98;;;;;;;6.30;63.42;99520.03;5089390;28;20062;-71
2021/05/02 01:35:12;;;;;;;19.45;13.70;;;;;;;6.28;63.59;99521.84;5090568;28;20043;-71
2021/05/02 01:37:37;;;;;;;15.40;12.95;;;;;;;6.25;64.00;99519.31;5091132;28;20043;-72
2021/05/02 01:40:05;;;;;;;16.63;11.77;;;;;;;6.29;63.49;99517.47;5090907;28;20040;-71
2021/05/02 01:42:31;;;;;;;20.13;12.48;;;;;;;6.30;63.80;99511.31;5093376;28;20441;-71
2021/05/02 01:44:56;;;;;;;17.95;13.82;;;;;;;6.34;63.78;99513.75;5093339;28;20123;-71
2021/05/02 01:47:22;;;;;;;16.20;12.73;;;;;;;6.36;63.73;99519.81;5093007;28;20399;-71
2021/05/02 01:50:02;;;;;;;16.13;13.13;;;;;;;6.38;64.25;99517.16;5093981;28;20040;-71
2021/05/02 01:52:29;;;;;;;18.80;13.48;;;;;;;6.40;63.96;99517.94;5093196;28;20054;-71
2021/05/02 01:54:55;;;;;;;22.52;13.82;;;;;;;6.44;63.87;99528.22;5093103;28;20040;-70
2021/05/02 01:57:29;;;;;;;16.95;13.35;;;;;;;6.49;64.32;99524.59;5092489;28;20111;-71
2021/05/02 01:59:58;;;;;;;18.15;13.80;;;;;;;6.51;64.26;99525.41;5093181;28;20058;-71
2021/05/02 02:02:26;;;;;;;19.98;15.05;;;;;;;6.52;64.49;99530.59;5092846;28;20487;-70
2021/05/02 02:04:54;;;;;;;19.58;14.85;;;;;;;6.51;64.67;99518.38;5092646;28;20097;-71
2021/05/02 02:07:20;;;;;;;20.55;15.52;;;;;;;6.50;64.74;99524.56;5091599;28;20093;-70
2021/05/02 02:09:45;;;;;;;23.48;18.65;;;;;;;6.53;64.82;99523.59;5090934;28;20044;-71
2021/05/02 02:12:11;;;;;;;27.95;18.90;;;;;;;6.48;65.11;99515.88;5092281;28;20119;-71
2021/05/02 02:14:39;;;;;;;18.40;15.43;;;;;;;6.52;65.19;99522.72;5092865;28;20441;-72
2021/05/02 02:17:07;;;;;;;22.20;16.75;;;;;;;6.50;65.26;99524.56;5092021;28;20372;-72
2021/05/02 02:19:33;;;;;;;22.38;16.52;;;;;;;6.54;65.21;99522.66;5092215;28;20039;-72
2021/05/02 02:22:00;;;;;;;26.05;18.50;;;;;;;6.56;65.03;99528.69;5092621;28;20525;-71
2021/05/02 02:24:57;;;;;;;20.80;16.88;;;;;;;6.51;65.98;99526.25;5092556;28;20040;-71
2021/05/02 02:27:26;;;;;;;20.33;16.67;;;;;;;6.53;65.61;99534.06;5092037;28;20047;-71
2021/05/02 02:29:53;;;;;;;22.02;17.98;;;;;;;6.55;66.10;99533.09;5092372;28;20395;-70
2021/05/02 02:32:18;;;;;;;22.08;16.27;;;;;;;6.61;65.46;99525.00;5093259;28;20032;-69
2021/05/02 02:34:46;;;;;;;23.13;17.80;;;;;;;6.64;65.98;99531.88;5092406;28;20035;-71
2021/05/02 02:37:18;;;;;;;23.35;18.25;;;;;;;6.62;65.89;99528.47;5074066;28;20036;-70
2021/05/02 02:39:47;;;;;;;22.80;16.77;;;;;;;6.65;65.82;99539.69;5092406;28;20028;-71
2021/05/02 02:42:13;;;;;;;22.40;16.88;;;;;;;6.69;65.62;99535.19;5092638;28;20039;-71
2021/05/02 02:44:46;;;;;;;21.38;17.38;;;;;;;6.71;66.07;99540.38;5092242;28;20040;-72
2021/05/02 02:47:16;;;;;;;20.08;15.35;;;;;;;6.72;65.71;99539.44;5091755;28;20078;-70
2021/05/02 02:49:46;;;;;;;25.05;16.23;;;;;;;6.72;65.98;99548.19;5092034;28;20119;-70
2021/05/02 02:52:17;;;;;;;27.73;18.50;;;;;;;6.70;65.86;99539.53;5074703;28;20036;-71
2021/05/02 02:54:46;;;;;;;23.70;17.25;;;;;;;6.74;66.05;99548.94;5092067;28;20044;-70
2021/05/02 02:57:13;;;;;;;25.10;18.52;;;;;;;6.74;65.87;99545.50;5092218;28;20924;-71
2021/05/02 02:59:40;;;;;;;23.92;18.70;;;;;;;6.73;65.88;99549.03;5093036;28;20039;-71
2021/05/02 03:02:07;;;;;;;36.05;22.45;;;;;;;6.72;66.22;99547.31;5092966;28;20047;-71
2021/05/02 03:04:34;;;;;;;33.92;21.33;;;;;;;6.63;66.47;99545.91;5093649;28;20032;-71
2021/05/02 03:07:00;;;;;;;29.60;20.00;;;;;;;6.64;66.65;99550.22;5094743;28;20615;-71
2021/05/02 03:09:26;;;;;;;31.60;21.85;;;;;;;6.61;66.99;99553.78;5094473;28;20036;-71
2021/05/02 03:11:51;;;;;;;27.00;20.75;;;;;;;6.59;67.13;99557.38;5074620;28;20043;-70
2021/05/02 03:14:17;;;;;;;29.52;22.65;;;;;;;6.62;66.93;99545.06;5073452;28;20032;-69
2021/05/02 03:16:44;;;;;;;26.80;21.30;;;;;;;6.69;66.80;99561.38;5091863;28;20131;-71
2021/05/02 03:19:19;;;;;;;28.90;24.48;;;;;;;6.67;66.83;99552.75;5092124;28;20024;-70
2021/05/02 03:21:51;;;;;;;31.88;22.75;;;;;;;6.68;67.05;99554.44;5092169;28;20024;-70
2021/05/02 03:24:24;;;;;;;27.65;20.60;;;;;;;6.70;66.83;99557.00;5092573;28;20043;-70
2021/05/02 03:26:56;;;;;;;28.88;22.45;;;;;;;6.70;67.20;99554.41;5093568;28;20036;-71
2021/05/02 03:29:24;;;;;;;26.40;19.90;;;;;;;6.68;66.98;99559.69;5091913;28;20031;-70
2021/05/02 03:31:52;;;;;;;26.95;22.88;;;;;;;6.75;66.67;99560.31;5092089;28;20054;-71
2021/05/02 03:34:22;;;;;;;32.95;24.48;;;;;;;6.77;67.13;99566.31;5091902;28;20036;-70
2021/05/02 03:36:57;;;;;;;32.47;25.58;;;;;;;6.80;67.41;99563.63;5073652;28;20040;-70
2021/05/02 03:39:22;;;;;;;27.85;23.27;;;;;;;6.75;67.22;99555.91;5091448;28;20032;-70
2021/05/02 03:41:47;;;;;;;36.15;27.90;;;;;;;6.80;66.91;99568.84;5090612;28;20051;-71
2021/05/02 03:44:13;;;;;;;37.25;24.95;;;;;;;6.84;67.20;99575.66;5090986;28;20043;-70
2021/05/02 03:46:38;;;;;;;32.28;23.30;;;;;;;6.80;67.26;99569.69;5090681;28;20035;-70
2021/05/02 03:49:06;;;;;;;33.95;24.20;;;;;;;6.74;67.26;99580.38;5090437;28;20036;-71
2021/05/02 03:51:34;;;;;;;39.65;28.73;;;;;;;6.66;67.95;99580.69;5091158;28;20036;-71
2021/05/02 03:54:00;;;;;;;42.15;26.52;;;;;;;6.57;68.41;99582.78;5072983;28;20053;-71
2021/05/02 03:56:31;;;;;;;33.40;25.23;;;;;;;6.60;69.80;99595.78;5090340;28;20506;-70
2021/05/02 03:59:12;;;;;;;30.95;23.58;;;;;;;6.60;70.43;99585.31;5085212;28;20047;-70
2021/05/02 04:01:47;;;;;;;38.35;28.85;;;;;;;6.53;70.61;99597.75;5070105;28;20171;-71
2021/05/02 04:04:14;;;;;;;42.90;33.50;;;;;;;6.41;71.89;99603.44;5078401;28;20121;-70
2021/05/02 04:06:40;;;;;;;36.08;25.67;;;;;;;6.41;71.69;99600.81;5090156;28;20047;-70
2021/05/02 04:09:08;;;;;;;38.63;29.15;;;;;;;6.43;72.29;99601.63;5090081;28;20448;-70
2021/05/02 04:11:33;;;;;;;31.13;24.15;;;;;;;6.44;71.64;99606.78;5090246;28;20031;-70
2021/05/02 04:14:06;;;;;;;34.00;24.13;;;;;;;6.42;72.40;99607.75;5090434;28;20036;-70
2021/05/02 04:16:32;;;;;;;42.20;30.15;;;;;;;6.38;72.73;99606.16;5090455;28;20028;-71
2021/05/02 04:18:58;;;;;;;36.03;24.17;;;;;;;6.39;72.39;99615.72;5089944;28;20040;-71
2021/05/02 04:21:24;;;;;;;39.70;27.38;;;;;;;6.42;72.01;99610.38;5091152;28;20020;-71
2021/05/02 04:23:49;;;;;;;39.72;25.65;;;;;;;6.40;71.82;99620.06;5090606;28;20036;-71
2021/05/02 04:26:15;;;;;;;34.53;27.23;;;;;;;6.28;72.48;99617.88;5090521;28;20032;-70
2021/05/02 04:28:40;;;;;;;33.08;25.23;;;;;;;6.30;72.60;99630.00;5089511;28;20028;-70
2021/05/02 04:31:06;;;;;;;37.75;28.38;;;;;;;6.34;72.97;99635.97;5090993;28;20072;-70
2021/05/02 04:33:32;;;;;;;36.78;29.45;;;;;;;6.34;72.91;99626.34;5069394;28;20052;-71
2021/05/02 04:35:58;;;;;;;35.42;28.08;;;;;;;6.36;72.52;99634.16;5077956;28;20510;-71
2021/05/02 04:38:23;;;;;;;37.88;30.70;;;;;;;6.35;72.49;99641.16;5087219;28;20031;-71
2021/05/02 04:40:48;;;;;;;32.50;22.80;;;;;;;6.41;72.07;99640.09;5090074;28;20085;-71
2021/05/02 04:43:14;;;;;;;32.92;25.90;;;;;;;6.49;72.65;99648.53;5089862;28;20032;-71
2021/05/02 04:45:40;;;;;;;36.42;26.30;;;;;;;6.47;72.38;99652.94;5089715;28;20093;-71
2021/05/02 04:48:06;;;;;;;34.97;26.40;;;;;;;6.46;72.18;99651.25;5089813;28;20503;-71
2021/05/02 04:50:31;;;;;;;39.03;27.50;;;;;;;6.44;72.31;99653.91;5089992;28;20036;-71
2021/05/02 04:52:59;;;;;;;30.55;21.75;;;;;;;6.44;71.95;99666.16;5093672;28;20059;-70
2021/05/02 04:55:25;;;;;;;31.58;24.15;;;;;;;6.42;71.79;99666.22;5089463;28;20024;-71
2021/05/02 04:57:50;;;;;;;30.63;23.05;;;;;;;6.38;71.83;99664.63;5089885;28;20370;-72
2021/05/02 05:00:16;;;;;;;33.03;24.85;;;;;;;6.34;71.77;99665.63;5090095;28;20032;-71
2021/05/02 05:02:41;;;;;;;35.95;26.13;;;;;;;6.39;71.84;99668.09;5093777;28;20111;-71
2021/05/02 05:05:07;;;;;;;29.83;21.98;;;;;;;6.41;71.41;99672.34;5094989;28;20048;-71
2021/05/02 05:07:32;;;;;;;34.55;27.42;;;;;;;6.51;71.95;99682.53;5094596;28;20039;-70
2021/05/02 05:09:58;;;;;;;31.08;22.40;;;;;;;6.53;71.12;99685.94;5093151;28;20032;-71
2021/05/02 05:12:23;;;;;;;36.10;25.92;;;;;;;6.59;71.43;99677.88;5090400;28;20391;-71
2021/05/02 05:14:48;;;;;;;28.92;21.55;;;;;;;6.58;71.08;99684.88;5089158;28;20496;-71
2021/05/02 05:17:14;;;;;;;30.13;21.08;;;;;;;6.59;71.35;99688.34;5089170;28;20560;-70
2021/05/02 05:19:39;;;;;;;30.42;23.63;;;;;;;6.69;70.86;99696.75;5089266;28;20583;-71
2021/05/02 05:22:04;;;;;;;37.08;24.33;;;;;;;6.74;71.02;99689.56;5089198;28;20036;-71
2021/05/02 05:24:30;;;;;;;30.60;24.02;;;;;;;6.74;70.36;99705.28;5089218;28;20032;-71
2021/05/02 05:26:55;;;;;;;34.95;27.02;;;;;;;6.69;70.13;99696.75;5089850;28;20061;-71
2021/05/02 05:29:20;;;;;;;32.80;25.17;;;;;;;6.67;69.92;99709.91;5090392;28;20028;-72
2021/05/02 05:31:46;;;;;;;33.83;24.00;;;;;;;6.72;70.41;99712.34;5089751;28;20073;-74
2021/05/02 05:34:11;;;;;;;28.63;23.25;;;;;;;6.78;70.44;99720.84;5072026;28;20040;-73
2021/05/02 05:36:36;;;;;;;29.50;21.80;;;;;;;6.81;69.62;99723.38;5089537;28;20488;-73
2021/05/02 05:39:02;;;;;;;30.65;20.35;;;;;;;6.78;69.62;99730.50;5089297;28;20842;-73
2021/05/02 05:41:28;;;;;;;27.27;21.05;;;;;;;6.79;69.61;99729.56;5088868;28;20432;-71
2021/05/02 05:43:53;;;;;;;24.10;19.70;;;;;;;6.81;69.07;99726.00;5089728;28;20040;-73
2021/05/02 05:46:18;;;;;;;23.08;18.45;;;;;;;6.87;68.45;99728.41;5089125;28;20032;-75
2021/05/02 05:48:43;;;;;;;26.90;18.40;;;;;;;6.90;68.14;99723.97;5089270;28;20047;-72
2021/05/02 05:51:09;;;;;;;27.58;18.08;;;;;;;6.95;68.22;99736.00;5089354;28;20123;-71
2021/05/02 05:53:36;;;;;;;24.33;18.90;;;;;;;7.05;67.68;99737.38;5088984;28;20032;-71
2021/05/02 05:56:01;;;;;;;27.17;18.17;;;;;;;6.94;67.23;99728.19;5070892;28;20032;-72
2021/05/02 05:58:29;;;;;;;22.83;17.55;;;;;;;6.85;67.33;99737.22;5089589;28;20028;-73
2021/05/02 06:00:55;;;;;;;25.33;18.75;;;;;;;6.83;68.07;99733.81;5089595;28;20498;-74
2021/05/02 06:03:20;;;;;;;23.50;17.83;;;;;;;6.91;67.80;99737.00;5085453;28;20054;-71
2021/05/02 06:05:46;;;;;;;21.13;14.73;;;;;;;6.96;67.93;99742.94;5088786;28;20512;-70
2021/05/02 06:08:11;;;;;;;27.25;16.45;;;;;;;7.01;67.16;99745.41;5088353;28;20495;-71
2021/05/02 06:10:36;;;;;;;18.77;14.95;;;;;;;7.12;66.64;99742.41;5089322;28;20506;-71
2021/05/02 06:13:02;;;;;;;26.05;15.57;;;;;;;7.16;65.75;99750.13;5088628;28;20065;-73
2021/05/02 06:15:27;;;;;;;21.35;14.68;;;;;;;7.15;65.01;99753.63;5054048;28;20121;-72
2021/05/02 06:17:52;;;;;;;23.23;15.07;;;;;;;7.09;66.37;99759.97;5081675;28;20035;-73
2021/05/02 06:20:18;;;;;;;18.50;14.27;;;;;;;7.18;66.08;99747.44;5089359;28;20020;-73
2021/05/02 06:22:43;;;;;;;18.70;13.23;;;;;;;7.32;65.44;99753.88;5092777;28;20039;-72
2021/05/02 06:25:10;;;;;;;19.98;12.88;;;;;;;7.45;64.51;99753.44;5076134;28;20162;-72
2021/05/02 06:27:35;;;;;;;19.92;11.75;;;;;;;7.41;63.87;99757.06;5072754;28;20028;-70
2021/05/02 06:30:03;;;;;;;18.45;13.38;;;;;;;7.42;64.45;99756.19;5075905;28;20390;-70
2021/05/02 06:32:29;;;;;;;17.05;12.43;;;;;;;7.38;64.29;99765.06;5091121;28;20032;-70
2021/05/02 06:34:56;;;;;;;16.65;12.88;;;;;;;7.42;64.08;99772.75;5092943;28;20502;-72
2021/05/02 06:37:21;;;;;;;21.42;14.90;;;;;;;7.43;63.69;99768.38;5088017;28;20036;-74
2021/05/02 06:39:46;;;;;;;16.48;11.40;;;;;;;7.53;62.51;99764.47;5092796;28;20441;-73
2021/05/02 06:42:12;;;;;;;13.15;9.95;;;;;;;7.48;61.30;99769.03;5093190;28;20040;-71
2021/05/02 06:44:37;;;;;;;21.42;8.30;;;;;;;7.52;60.88;99762.78;5092544;28;20060;-74
2021/05/02 06:47:03;;;;;;;11.93;8.32;;;;;;;7.61;59.99;99764.22;5093177;28;20074;-74
2021/05/02 06:49:29;;;;;;;17.60;9.85;;;;;;;8.27;58.24;99765.16;5085866;28;20039;-72
2021/05/02 06:51:54;;;;;;;12.52;8.05;;;;;;;8.60;57.47;99773.44;5096733;28;20036;-75
2021/05/02 06:54:19;;;;;;;10.27;7.60;;;;;;;9.19;55.13;99761.31;5076798;28;20032;-74
2021/05/02 06:56:45;;;;;;;14.77;9.15;;;;;;;9.30;55.26;99765.22;5096697;28;20044;-72
2021/05/02 06:59:10;;;;;;;13.70;6.70;;;;;;;9.43;52.75;99767.25;5102175;28;20509;-72
2021/05/02 07:01:36;;;;;;;11.57;6.38;;;;;;;9.30;53.23;99765.22;5103122;28;20445;-73
2021/05/02 07:04:01;;;;;;;13.07;8.25;;;;;;;9.09;53.98;99769.69;5099317;28;20511;-72
2021/05/02 07:06:27;;;;;;;9.00;6.78;;;;;;;8.89;54.19;99775.78;5094153;28;20032;-74
2021/05/02 07:08:53;;;;;;;12.23;6.55;;;;;;;8.77;54.88;99778.00;5095081;28;20032;-74
2021/05/02 07:11:21;;;;;;;12.13;6.05;;;;;;;8.64;54.05;99786.44;5097911;28;20032;-71
2021/05/02 07:13:46;;;;;;;8.65;6.25;;;;;;;8.66;53.48;99779.38;5085270;28;20045;-72
2021/05/02 07:16:11;;;;;;;8.30;5.20;;;;;;;8.74;54.29;99782.56;5081766;28;20040;-73
2021/05/02 07:18:39;;;;;;;10.52;7.25;;;;;;;8.86;53.98;99776.78;5085124;28;20114;-72
2021/05/02 07:21:05;;;;;;;13.15;7.00;;;;;;;8.91;60.70;99780.06;5083830;28;20530;-73
2021/05/02 07:23:31;;;;;;;7.80;5.95;;;;;;;8.89;54.10;99783.69;5081756;28;20070;-73
2021/05/02 07:25:57;;;;;;;8.65;5.75;;;;;;;8.94;57.20;99787.81;5088685;28;20032;-73
2021/05/02 07:28:22;;;;;;;17.35;8.15;;;;;;;9.06;56.95;99789.06;5092367;28;20170;-72
2021/05/02 07:30:48;;;;;;;7.03;4.95;;;;;;;8.93;53.40;99793.97;5091368;28;20105;-72
2021/05/02 07:33:13;;;;;;;7.72;4.90;;;;;;;8.67;53.03;99792.44;5090096;28;20438;-72
2021/05/02 07:35:38;;;;;;;9.23;5.20;;;;;;;8.56;53.47;99790.25;5082644;28;20036;-72
2021/05/02 07:38:04;;;;;;;11.00;5.38;;;;;;;8.46;52.52;99798.56;5081331;28;20040;-72
2021/05/02 07:40:30;;;;;;;8.15;4.43;;;;;;;8.45;52.66;99799.50;5082053;28;20031;-71
2021/05/02 07:42:56;;;;;;;6.60;4.78;;;;;;;8.59;52.88;99799.81;5083000;28;20066;-73
2021/05/02 07:45:21;;;;;;;12.20;4.72;;;;;;;8.77;51.69;99792.94;5080518;28;20504;-73
2021/05/02 07:47:47;;;;;;;11.77;4.63;;;;;;;9.67;50.25;99796.91;5081879;28;20036;-73
2021/05/02 07:50:12;;;;;;;10.75;4.75;;;;;;;9.83;49.03;99790.91;5064912;28;20131;-73
2021/05/02 07:52:39;;;;;;;12.07;5.20;;;;;;;9.98;48.02;99795.47;5088160;28;20581;-71
2021/05/02 07:55:04;;;;;;;5.55;3.75;;;;;;;10.07;47.90;99800.31;5083111;28;20071;-68
2021/05/02 07:57:30;;;;;;;9.95;4.50;;;;;;;10.01;47.79;99797.94;5059708;28;20044;-67
2021/05/02 07:59:55;;;;;;;7.07;3.70;;;;;;;10.40;47.16;99799.66;5075884;28;20078;-68
2021/05/02 08:02:22;;;;;;;8.02;4.53;;;;;;;10.61;45.37;99789.88;5073358;28;20492;-68
2021/05/02 08:04:48;;;;;;;10.02;4.50;;;;;;;11.12;44.19;99795.22;5070882;28;20106;-68
2021/05/02 08:07:13;;;;;;;6.93;3.88;;;;;;;11.43;42.38;99793.63;5070762;28;20389;-68
2021/05/02 08:09:39;;;;;;;5.13;3.50;;;;;;;11.74;42.03;99792.84;5070882;28;20047;-68
2021/05/02 08:12:07;;;;;;;9.18;4.80;;;;;;;11.27;43.45;99804.13;5070695;28;20043;-68
2021/05/02 08:14:32;;;;;;;6.15;3.80;;;;;;;10.77;44.22;99810.19;5070182;28;20029;-68
2021/05/02 08:16:58;;;;;;;9.90;3.92;;;;;;;10.85;43.98;99803.59;5069878;28;20147;-68
2021/05/02 08:19:23;;;;;;;8.68;4.05;;;;;;;11.02;42.97;99805.38;5070641;28;20101;-70
2021/05/02 08:21:49;;;;;;;5.47;3.67;;;;;;;11.88;41.45;99807.97;5070435;28;20104;-68
2021/05/02 08:24:15;;;;;;;6.00;3.05;;;;;;;12.38;38.54;99793.75;5075488;28;20028;-68
2021/05/02 08:26:40;;;;;;;8.07;3.05;;;;;;;12.83;37.51;99797.34;5110566;28;20024;-66
2021/05/02 08:29:06;;;;;;;6.78;3.00;;;;;;;13.17;37.50;99796.22;5092628;28;20441;-68
2021/05/02 08:31:32;;;;;;;6.25;3.10;;;;;;;13.25;37.65;99803.69;5065111;28;20067;-69
2021/05/02 08:33:58;;;;;;;9.90;3.13;;;;;;;12.62;38.56;99804.72;5080394;28;20036;-69
2021/05/02 08:36:23;;;;;;;7.07;3.25;;;;;;;12.24;40.12;99813.88;5071576;28;20036;-68
2021/05/02 08:38:49;;;;;;;11.20;3.45;;;;;;;11.68;41.18;99812.50;5089965;28;20062;-68
2021/05/02 08:41:15;;;;;;;8.18;3.35;;;;;;;11.44;41.21;99812.00;5086134;28;20064;-68
2021/05/02 08:43:40;;;;;;;5.75;3.83;;;;;;;11.92;41.00;99815.66;5048585;28;20033;-67
2021/05/02 08:46:05;;;;;;;6.35;3.58;;;;;;;12.79;39.87;99811.69;5088729;28;20035;-68
2021/05/02 08:48:31;;;;;;;8.20;3.70;;;;;;;11.99;40.25;99817.03;5068351;28;20033;-69
2021/05/02 08:50:58;;;;;;;9.77;4.03;;;;;;;11.60;40.95;99822.63;5087094;28;20035;-65
2021/05/02 08:53:25;;;;;;;8.77;4.03;;;;;;;12.24;39.82;99824.47;5089854;28;20504;-67
2021/05/02 08:55:54;;;;;;;7.15;4.85;;;;;;;12.99;38.64;99818.47;5089515;28;20485;-69
2021/05/02 08:58:21;;;;;;;5.50;3.65;;;;;;;13.37;37.61;99812.72;5089823;28;20036;-66
2021/05/02 09:00:50;;;;;;;7.80;3.47;;;;;;;13.85;36.29;99811.50;5089721;28;20040;-66
2021/05/02 09:03:16;;;;;;;7.78;3.85;;;;;;;14.17;34.14;99811.25;5089476;28;20123;-66
2021/05/02 09:05:46;;;;;;;4.97;2.90;;;;;;;13.65;32.83;99806.59;5087448;28;20173;-68
2021/05/02 09:08:34;;;;;;;11.20;3.75;;;;;;;13.21;34.58;99808.31;5051565;28;20059;-67
2021/05/02 09:11:03;;;;;;;7.35;3.80;;;;;;;12.99;35.66;99807.88;5088842;28;20028;-68
2021/05/02 09:13:29;;;;;;;10.05;4.43;;;;;;;12.58;36.07;99811.16;5089721;28;20047;-67
2021/05/02 09:15:59;;;;;;;8.90;3.63;;;;;;;12.16;37.84;99816.13;5089594;28;20031;-68
2021/05/02 09:18:36;;;;;;;7.72;3.42;;;;;;;13.40;36.11;99809.88;5089565;28;20028;-68
2021/05/02 09:21:02;;;;;;;6.88;3.53;;;;;;;13.99;33.13;99805.34;5074098;28;20070;-68
2021/05/02 09:23:39;;;;;;;7.32;3.65;;;;;;;14.75;31.00;99806.69;5051857;28;20032;-67
2021/05/02 09:26:05;;;;;;;4.32;2.53;;;;;;;14.19;31.24;99809.38;5061521;28;20044;-68
2021/05/02 09:28:46;;;;;;;8.60;3.38;;;;;;;13.58;32.96;99811.41;5068977;28;20392;-67
2021/05/02 09:31:23;;;;;;;4.78;3.47;;;;;;;13.27;35.94;99815.06;5067946;28;20495;-67
2021/05/02 09:33:49;;;;;;;8.15;3.55;;;;;;;12.55;38.53;99822.75;5077860;28;20028;-66
2021/05/02 09:36:17;;;;;;;8.15;3.83;;;;;;;12.28;39.41;99827.81;5090045;28;20036;-67
2021/05/02 09:38:44;;;;;;;6.97;3.90;;;;;;;12.10;39.86;99832.28;5089957;28;20028;-67
2021/05/02 09:41:11;;;;;;;8.10;4.10;;;;;;;12.00;39.88;99839.03;5089407;28;20036;-69
2021/05/02 09:43:49;;;;;;;6.90;3.70;;;;;;;11.78;39.74;99829.56;5089215;28;20031;-67
2021/05/02 09:46:29;;;;;;;7.88;4.70;;;;;;;11.71;40.33;99835.25;5089129;28;20547;-67
2021/05/02 09:49:10;;;;;;;7.82;3.95;;;;;;;11.80;39.83;99830.34;5089658;28;20081;-67
2021/05/02 09:51:38;;;;;;;7.38;3.45;;;;;;;12.24;38.57;99829.75;5089277;28;20503;-68
2021/05/02 09:54:08;;;;;;;6.05;3.15;;;;;;;12.14;38.18;99822.41;5089483;28;20450;-68
2021/05/02 09:56:45;;;;;;;5.10;3.60;;;;;;;12.10;37.42;99834.09;5073206;28;20035;-66
2021/05/02 09:59:21;;;;;;;6.53;3.22;;;;;;;11.79;37.56;99836.56;5090722;28;20032;-68
2021/05/02 10:02:18;;;;;;;7.93;2.78;;;;;;;11.77;37.68;99835.78;5078606;28;20054;-68
2021/05/02 10:04:47;;;;;;;5.38;3.60;;;;;;;11.72;37.99;99843.13;5068992;28;20503;-69
2021/05/02 10:07:15;;;;;;;7.90;3.63;;;;;;;11.66;38.31;99837.28;5093168;28;20445;-67
2021/05/02 10:09:41;;;;;;;5.53;3.17;;;;;;;11.54;38.52;99837.03;5093534;28;20080;-67
2021/05/02 10:12:09;;;;;;;6.15;3.00;;;;;;;11.38;39.13;99844.03;5093619;28;20028;-68
2021/05/02 10:14:35;;;;;;;7.65;4.03;;;;;;;11.31;39.49;99843.47;5075129;28;20531;-65
2021/05/02 10:17:01;;;;;;;7.47;3.65;;;;;;;11.18;39.62;99847.69;5092582;28;20028;-66
2021/05/02 10:19:28;;;;;;;7.32;3.55;;;;;;;11.26;39.69;99840.22;5093609;28;20032;-66
2021/05/02 10:21:54;;;;;;;5.10;2.95;;;;;;;11.39;40.02;99840.44;5093230;28;20028;-66
2021/05/02 10:24:19;;;;;;;8.65;3.13;;;;;;;11.53;39.36;99839.72;5093240;28;20040;-65
2021/05/02 10:26:44;;;;;;;8.30;3.38;;;;;;;11.41;39.82;99843.00;5093161;28;20495;-67
2021/05/02 10:29:10;;;;;;;11.18;3.92;;;;;;;11.46;38.46;99846.25;5092807;28;20551;-68
2021/05/02 10:31:41;;;;;;;9.85;3.03;;;;;;;11.33;38.71;99838.97;5093342;28;20034;-68
2021/05/02 10:34:29;;;;;;;5.90;2.80;;;;;;;11.21;38.51;99847.53;5093385;28;20042;-68
2021/05/02 10:37:27;;;;;;;10.20;3.92;;;;;;;11.23;38.34;99845.66;5093035;28;20036;-68
2021/05/02 10:39:54;;;;;;;8.02;2.92;;;;;;;11.25;38.53;99846.44;5093344;28;20032;-69
2021/05/02 10:42:51;;;;;;;6.50;3.35;;;;;;;11.38;38.72;99855.44;5093269;28;20028;-69
2021/05/02 10:45:37;;;;;;;6.03;3.17;;;;;;;11.36;38.49;99846.72;5093139;28;20032;-68
2021/05/02 10:48:30;;;;;;;5.00;2.88;;;;;;;11.43;38.52;99846.44;5094626;28;20119;-69
2021/05/02 10:50:56;;;;;;;8.25;2.95;;;;;;;11.77;38.44;99846.34;5086518;28;20032;-68
2021/05/02 10:53:23;;;;;;;8.18;3.22;;;;;;;12.19;36.91;99850.28;5094471;28;20115;-68
2021/05/02 10:56:10;;;;;;;5.47;3.40;;;;;;;12.48;34.94;99852.25;5093365;28;20044;-68
2021/05/02 10:58:40;;;;;;;4.80;2.60;;;;;;;12.56;34.25;99842.97;5093266;28;20032;-68
2021/05/02 11:01:05;;;;;;;6.47;2.88;;;;;;;12.93;34.21;99848.78;5093528;28;20101;-67
2021/05/02 11:03:40;;;;;;;4.07;2.38;;;;;;;12.60;34.65;99841.84;5093822;28;20426;-65
2021/05/02 11:06:13;;;;;;;4.30;2.75;;;;;;;12.20;34.58;99846.69;5093456;28;20047;-68
2021/05/02 11:08:49;;;;;;;5.22;3.03;;;;;;;12.07;36.05;99850.13;5085634;28;20042;-72
2021/05/02 11:11:38;;;;;;;;;;;;;;;12.06;36.53;99851.91;5080374;28;20035;-74
2021/05/02 11:16:34;;;;;;;4.05;2.50;;;;;;;12.41;36.95;99849.97;5085145;28;20036;-72
2021/05/02 11:19:00;;;;;;;4.60;3.45;;;;;;;12.59;35.94;99848.06;5056079;28;20040;-72
2021/05/02 11:21:26;;;;;;;6.40;3.10;;;;;;;12.79;35.64;99851.38;5067962;28;20060;-72
2021/05/02 11:23:58;;;;;;;7.03;3.03;;;;;;;13.19;34.58;99857.00;5053262;28;20032;-71
2021/05/02 11:27:04;;;;;;;5.53;2.90;;;;;;;13.29;34.32;99847.59;5065577;28;20040;-72
2021/05/02 11:29:40;;;;;;;6.38;2.83;;;;;;;13.15;34.26;99856.34;5079926;28;20040;-72
2021/05/02 11:32:06;;;;;;;8.65;2.97;;;;;;;13.23;33.93;99854.06;5086435;28;20093;-73
2021/05/02 11:34:50;;;;;;;4.45;2.70;;;;;;;13.31;33.36;99851.88;5086439;28;20043;-73
2021/05/02 11:37:36;;;;;;;8.68;2.90;;;;;;;13.17;33.99;99849.16;5085689;28;20077;-70